Time;durP1;ratioP1;P1;durP2;ratioP2;P2;SDS_P1;SDS_P2;PMS_P1;PMS_P2;Temp;Humidity;BMP_temperature;BMP_pressure;BME280_temperature;BME280_humidity;BME280_pressure;Samples;Min_cycle;Max_cycle;Signal;HPM_P1;HPM_P2
2023/10/16 00:01:13;;;;;;;5.03;3.83;;;;;1.50;96835.00;;;;8254496;28;20205;-62
2023/10/16 00:05:18;;;;;;;6.67;3.77;;;;;1.50;96845.00;;;;8249179;28;20241;-62
2023/10/16 00:09:22;;;;;;;7.07;4.37;;;;;1.50;96844.00;;;;8249503;28;20264;-62
2023/10/16 00:13:27;;;;;;;6.00;4.07;;;;;1.40;96864.00;;;;8253327;28;20210;-62
2023/10/16 00:17:31;;;;;;;8.23;4.17;;;;;1.30;96863.00;;;;8250450;28;20910;-62
2023/10/16 00:21:43;;;;;;;9.23;4.73;;;;;1.20;96862.00;;;;8260075;28;20200;-62
2023/10/16 00:25:50;;;;;;;7.30;4.60;;;;;1.20;96855.00;;;;8249127;28;20231;-62
2023/10/16 00:29:55;;;;;;;17.80;5.53;;;;;1.10;96840.00;;;;8241323;28;20327;-62
2023/10/16 00:33:59;;;;;;;9.23;4.63;;;;;1.00;96847.00;;;;8255821;28;20312;-62
2023/10/16 00:38:04;;;;;;;34.10;6.07;;;;;0.90;96832.00;;;;8257876;28;21013;-61
2023/10/16 00:42:09;;;;;;;48.60;5.27;;;;;0.80;96846.00;;;;8250357;28;20291;-61
2023/10/16 00:46:25;;;;;;;11.83;4.87;;;;;0.80;96817.00;;;;8252209;28;20200;-61
2023/10/16 00:50:28;;;;;;;6.33;4.13;;;;;0.80;96831.00;;;;8250998;28;20209;-61
2023/10/16 00:54:38;;;;;;;8.90;4.67;;;;;0.80;96820.00;;;;8254054;28;20228;-61
2023/10/16 00:58:45;;;;;;;5.73;3.73;;;;;0.80;96833.00;;;;8251750;28;20223;-61
2023/10/16 01:02:48;;;;;;;7.80;3.90;;;;;0.80;96841.00;;;;8252547;28;20916;-61
2023/10/16 01:06:51;;;;;;;10.13;5.33;;;;;0.70;96830.00;;;;8255081;28;20199;-62
2023/10/16 01:10:57;;;;;;;10.70;4.63;;;;;0.70;96828.00;;;;8253937;28;20198;-62
2023/10/16 01:15:00;;;;;;;11.87;3.90;;;;;0.60;96824.00;;;;8245645;28;20313;-62
2023/10/16 01:19:06;;;;;;;7.53;3.83;;;;;0.60;96816.00;;;;8253124;28;20286;-61
2023/10/16 01:23:11;;;;;;;7.20;3.70;;;;;0.60;96812.00;;;;8258933;28;20295;-61
2023/10/16 01:27:29;;;;;;;5.40;3.70;;;;;0.60;96808.00;;;;8254783;28;20220;-62
2023/10/16 01:31:36;;;;;;;7.17;3.80;;;;;0.60;96814.00;;;;8259665;28;20503;-62
2023/10/16 01:35:39;;;;;;;5.20;3.60;;;;;0.60;96813.00;;;;8243167;28;20234;-62
2023/10/16 01:39:49;;;;;;;6.00;4.03;;;;;0.50;96808.00;;;;8256314;28;20284;-62
2023/10/16 01:43:53;;;;;;;4.93;3.40;;;;;0.60;96811.00;;;;8251986;28;20258;-62
2023/10/16 01:47:56;;;;;;;7.03;4.07;;;;;0.60;96815.00;;;;8260165;28;20243;-62
2023/10/16 01:51:59;;;;;;;8.90;3.70;;;;;0.70;96809.00;;;;8267070;28;20361;-62
2023/10/16 01:56:12;;;;;;;6.60;3.83;;;;;0.70;96806.00;;;;8268437;28;20236;-62
2023/10/16 02:00:24;;;;;;;6.60;3.63;;;;;0.60;96806.00;;;;8252644;28;20218;-62
2023/10/16 02:04:27;;;;;;;8.43;3.70;;;;;0.60;96796.00;;;;8251698;28;20227;-62
2023/10/16 02:08:30;;;;;;;4.43;2.90;;;;;0.50;96790.00;;;;8255265;28;20292;-62
2023/10/16 02:12:34;;;;;;;4.90;3.63;;;;;0.40;96792.00;;;;8247670;28;20207;-62
2023/10/16 02:16:39;;;;;;;4.83;3.47;;;;;0.40;96787.00;;;;8257090;28;20283;-62
2023/10/16 02:20:45;;;;;;;5.27;3.60;;;;;0.40;96784.00;;;;8256292;28;20283;-62
2023/10/16 02:24:49;;;;;;;4.57;3.53;;;;;0.40;96790.00;;;;8263149;28;20666;-62
2023/10/16 02:28:55;;;;;;;4.73;3.27;;;;;0.30;96787.00;;;;8257743;28;20211;-62
2023/10/16 02:33:13;;;;;;;8.40;3.67;;;;;0.30;96790.00;;;;8265478;28;20202;-62
2023/10/16 02:37:16;;;;;;;6.23;3.53;;;;;0.20;96789.00;;;;8271145;28;20235;-62
2023/10/16 02:41:20;;;;;;;4.73;3.40;;;;;0.20;96777.00;;;;8256778;28;20207;-62
2023/10/16 02:45:25;;;;;;;6.40;3.27;;;;;0.10;96771.00;;;;8256942;28;20238;-61
2023/10/16 02:49:28;;;;;;;5.97;3.37;;;;;0.00;96774.00;;;;8252420;28;20285;-62
2023/10/16 02:53:33;;;;;;;5.87;3.40;;;;;0.00;96773.00;;;;8252725;28;20290;-62
2023/10/16 02:57:40;;;;;;;5.17;3.50;;;;;0.00;96774.00;;;;8259224;28;20221;-62
2023/10/16 03:01:50;;;;;;;8.23;3.40;;;;;0.00;96772.00;;;;8291807;23;20244;-96
2023/10/16 03:06:00;;;;;;;7.50;3.17;;;;;0.10;96771.00;;;;8296580;28;20201;-96
2023/10/16 03:10:10;;;;;;;5.60;2.97;;;;;0.00;96779.00;;;;8298218;28;20203;-96
2023/10/16 03:14:45;;;;;;;5.30;3.23;;;;;-0.10;96781.00;;;;8296412;28;20207;-96
2023/10/16 03:19:23;;;;;;;6.03;3.00;;;;;-0.10;96775.00;;;;8263880;28;20230;-96
2023/10/16 03:23:36;;;;;;;7.77;3.27;;;;;-0.20;96769.00;;;;8264249;28;20199;-96
2023/10/16 03:28:05;;;;;;;4.57;3.13;;;;;-0.20;96787.00;;;;8263527;28;20212;-96
2023/10/16 03:32:18;;;;;;;3.37;2.73;;;;;-0.20;96780.00;;;;8262228;28;20255;-96
2023/10/16 03:36:55;;;;;;;5.63;2.97;;;;;-0.30;96782.00;;;;8262626;28;20696;-96
2023/10/16 03:41:19;;;;;;;9.93;3.60;;;;;-0.30;96773.00;;;;8263353;28;20235;-96
2023/10/16 03:45:31;;;;;;;7.17;4.73;;;;;-0.30;96773.00;;;;8261377;28;20520;-96
2023/10/16 03:49:41;;;;;;;6.73;3.83;;;;;-0.40;96779.00;;;;8261420;28;20274;-96
2023/10/16 03:53:52;;;;;;;4.93;3.70;;;;;-0.40;96779.00;;;;8245081;28;20199;-96
2023/10/16 03:58:03;;;;;;;6.40;3.10;;;;;-0.30;96782.00;;;;8246927;28;20222;-96
2023/10/16 04:02:11;;;;;;;7.87;4.17;;;;;-0.30;96791.00;;;;8244591;28;20258;-95
2023/10/16 04:26:32;;;;;;;6.73;3.50;;;;;-0.50;96769.00;;;;8164373;28;20203;-95
2023/10/16 04:30:39;;;;;;;5.43;3.50;;;;;-0.50;96784.00;;;;8243059;28;20210;-95
2023/10/16 04:34:52;;;;;;;5.33;3.30;;;;;-0.50;96768.00;;;;8243439;28;20200;-95
2023/10/16 04:38:56;;;;;;;7.43;3.67;;;;;-0.50;96768.00;;;;8248592;28;20686;-95
2023/10/16 04:47:17;;;;;;;6.77;3.50;;;;;-0.70;96759.00;;;;8247367;28;20211;-95
2023/10/16 04:51:52;;;;;;;3.93;3.53;;;;;-0.70;96753.00;;;;8246887;28;20283;-95
2023/10/16 04:56:04;;;;;;;7.10;4.17;;;;;-0.70;96753.00;;;;8246442;28;20697;-95
2023/10/16 05:05:32;;;;;;;5.10;3.70;;;;;-0.70;96753.00;;;;8399176;27;20577;-60
2023/10/16 05:13:55;;;;;;;7.23;4.40;;;;;-0.70;96750.00;;;;8376231;28;20741;-61
2023/10/16 05:18:11;;;;;;;17.07;5.83;;;;;-0.70;96742.00;;;;8373445;28;20204;-62
2023/10/16 06:14:36;;;;;;;7.77;3.87;;;;;-0.50;96765.00;;;;8390975;28;20203;-61
2023/10/16 06:18:39;;;;;;;5.73;3.70;;;;;-0.50;96764.00;;;;8380531;28;20279;-60
2023/10/16 06:22:50;;;;;;;7.93;4.10;;;;;-0.40;96772.00;;;;8380175;28;20262;-61
2023/10/16 06:26:53;;;;;;;12.63;4.27;;;;;-0.20;96771.00;;;;8379193;28;20280;-60
2023/10/16 06:30:58;;;;;;;6.63;4.63;;;;;0.00;96780.00;;;;8377958;28;20766;-61
2023/10/16 06:35:02;;;;;;;13.47;4.80;;;;;0.10;96776.00;;;;8384231;28;20202;-60
2023/10/16 06:39:06;;;;;;;5.87;4.23;;;;;0.20;96774.00;;;;8386549;28;20239;-61
2023/10/16 06:43:13;;;;;;;5.60;4.70;;;;;0.20;96778.00;;;;8377368;28;20335;-61
2023/10/16 06:47:23;;;;;;;8.33;5.13;;;;;0.30;96781.00;;;;8387634;28;20208;-61
2023/10/16 06:51:27;;;;;;;7.20;6.30;;;;;0.50;96785.00;;;;8385960;28;20249;-61
2023/10/16 06:55:30;;;;;;;10.57;5.83;;;;;0.60;96787.00;;;;8384278;28;20208;-61
2023/10/16 06:59:33;;;;;;;11.90;5.80;;;;;0.80;96795.00;;;;8385209;28;20282;-61
2023/10/16 07:03:39;;;;;;;13.27;5.27;;;;;0.90;96793.00;;;;8381816;28;20224;-61
2023/10/16 07:07:42;;;;;;;9.30;4.90;;;;;1.10;96794.00;;;;8385560;28;21098;-61
2023/10/16 07:11:47;;;;;;;12.00;5.77;;;;;1.30;96790.00;;;;8384484;28;20198;-61
2023/10/16 07:15:53;;;;;;;7.27;5.33;;;;;1.50;96797.00;;;;8380945;28;20200;-61
2023/10/16 07:19:59;;;;;;;8.23;4.77;;;;;1.70;96794.00;;;;8385505;28;20199;-61
2023/10/16 07:24:04;;;;;;;5.97;4.37;;;;;1.80;96798.00;;;;8378620;28;20232;-61
2023/10/16 07:28:09;;;;;;;6.83;4.77;;;;;2.00;96803.00;;;;8385953;28;20235;-61
2023/10/16 07:32:12;;;;;;;7.17;4.53;;;;;2.10;96799.00;;;;8380234;28;20288;-61
2023/10/16 07:36:17;;;;;;;9.97;4.80;;;;;2.20;96797.00;;;;8381147;28;20282;-61
2023/10/16 07:40:21;;;;;;;9.40;5.63;;;;;2.30;96790.00;;;;8383819;28;20197;-62
2023/10/16 07:44:27;;;;;;;9.97;6.10;;;;;2.50;96802.00;;;;8382582;28;20267;-61
2023/10/16 07:48:30;;;;;;;13.63;6.37;;;;;2.60;96795.00;;;;8390534;28;20307;-61
2023/10/16 07:52:35;;;;;;;10.37;5.97;;;;;2.80;96811.00;;;;8384035;28;20231;-61
2023/10/16 07:56:38;;;;;;;13.87;6.20;;;;;3.00;96795.00;;;;8376286;28;20239;-61
2023/10/16 08:00:58;;;;;;;12.23;6.27;;;;;3.10;96804.00;;;;8383844;28;20198;-61
2023/10/16 08:05:03;;;;;;;14.47;6.63;;;;;3.30;96810.00;;;;8382785;28;20283;-60
2023/10/16 08:13:33;;;;;;;8.60;4.17;;;;;3.60;96810.00;;;;8379524;28;20240;-61
2023/10/16 08:17:37;;;;;;;6.77;4.50;;;;;3.60;96810.00;;;;8381626;28;20199;-61
2023/10/16 08:21:40;;;;;;;9.00;4.63;;;;;3.70;96812.00;;;;8388198;28;20203;-61
2023/10/16 08:25:47;;;;;;;6.90;4.60;;;;;3.70;96820.00;;;;8388857;28;20235;-61
2023/10/16 08:29:54;;;;;;;8.77;4.63;;;;;4.00;96829.00;;;;8373822;28;20212;-61
2023/10/16 08:33:59;;;;;;;6.67;4.40;;;;;4.40;96824.00;;;;8371976;28;20322;-62
2023/10/16 08:38:10;;;;;;;42.63;5.53;;;;;4.80;96818.00;;;;8385081;28;20203;-62
2023/10/16 08:42:20;;;;;;;34.73;12.07;;;;;5.20;96822.00;;;;8383706;28;20269;-63
2023/10/16 08:46:31;;;;;;;30.73;9.20;;;;;5.70;96817.00;;;;8387423;28;20222;-63
2023/10/16 08:50:52;;;;;;;49.23;9.30;;;;;6.00;96826.00;;;;8380714;28;20204;-64
2023/10/16 08:55:02;;;;;;;24.20;6.20;;;;;6.30;96825.00;;;;8369087;28;20200;-64
2023/10/16 08:59:07;;;;;;;64.77;7.53;;;;;6.40;96818.00;;;;8374132;28;20198;-64
2023/10/16 09:03:11;;;;;;;14.93;6.30;;;;;6.60;96816.00;;;;8379958;28;20270;-64
2023/10/16 09:07:16;;;;;;;22.87;7.43;;;;;6.90;96818.00;;;;8378540;28;20211;-64
2023/10/16 09:11:20;;;;;;;21.53;6.93;;;;;7.30;96820.00;;;;8380028;28;20725;-64
2023/10/16 09:15:26;;;;;;;12.03;6.27;;;;;7.60;96821.00;;;;8379898;28;20199;-64
2023/10/16 09:19:33;;;;;;;51.73;8.00;;;;;7.80;96817.00;;;;8374242;28;20200;-64
2023/10/16 09:23:37;;;;;;;17.80;7.57;;;;;8.00;96811.00;;;;8375118;28;21050;-65
2023/10/16 09:27:42;;;;;;;14.30;6.97;;;;;8.30;96808.00;;;;8379192;28;20282;-64
2023/10/16 09:31:47;;;;;;;11.33;6.43;;;;;8.50;96817.00;;;;8381170;28;20238;-64
2023/10/16 09:35:59;;;;;;;11.57;6.37;;;;;8.70;96819.00;;;;8375297;28;20773;-64
2023/10/16 09:40:18;;;;;;;34.23;7.13;;;;;8.80;96825.00;;;;8376926;28;20738;-64
2023/10/16 09:44:37;;;;;;;7.87;5.77;;;;;9.00;96820.00;;;;8382945;28;20258;-64
2023/10/16 09:48:43;;;;;;;8.90;5.77;;;;;9.20;96818.00;;;;8379005;28;20246;-65
2023/10/16 09:52:48;;;;;;;8.05;5.90;;;;;9.10;96817.00;;;;8384572;28;20219;-64
2023/10/16 09:56:58;;;;;;;7.70;5.80;;;;;9.00;96817.00;;;;8386730;28;20196;-64
2023/10/16 10:01:06;;;;;;;11.23;6.50;;;;;8.80;96811.00;;;;8381360;28;20262;-64
2023/10/16 10:05:12;;;;;;;10.10;6.57;;;;;8.90;96813.00;;;;8388863;28;20236;-64
2023/10/16 10:09:32;;;;;;;8.60;5.97;;;;;9.00;96826.00;;;;8378357;28;20188;-65
2023/10/16 10:13:43;;;;;;;7.53;5.83;;;;;9.10;96826.00;;;;8389905;28;20661;-64
2023/10/16 10:17:47;;;;;;;10.63;6.82;;;;;9.20;96827.00;;;;8382775;28;20899;-64
2023/10/16 10:21:54;;;;;;;8.98;6.13;;;;;9.30;96825.00;;;;8389515;28;20287;-64
2023/10/16 10:26:02;;;;;;;7.75;5.53;;;;;9.30;96825.00;;;;8380880;28;20297;-64
2023/10/16 10:30:08;;;;;;;9.98;6.40;;;;;9.20;96821.00;;;;8382703;28;20196;-64
2023/10/16 10:34:22;;;;;;;6.35;5.10;;;;;9.20;96819.00;;;;8389787;28;20203;-65
2023/10/16 10:38:29;;;;;;;7.60;5.70;;;;;9.50;96811.00;;;;8388826;28;20224;-64
2023/10/16 10:42:41;;;;;;;8.83;5.97;;;;;9.70;96810.00;;;;8380669;28;20197;-64
2023/10/16 10:46:49;;;;;;;7.18;5.53;;;;;9.90;96805.00;;;;8381383;28;20228;-64
2023/10/16 10:50:56;;;;;;;10.25;6.18;;;;;10.10;96807.00;;;;8388687;28;20212;-64
2023/10/16 10:55:07;;;;;;;7.45;5.90;;;;;10.40;96804.00;;;;8381305;28;20196;-64
2023/10/16 10:59:11;;;;;;;9.87;6.77;;;;;10.60;96801.00;;;;8387722;28;20198;-64
2023/10/16 11:03:41;;;;;;;7.45;6.00;;;;;10.90;96795.00;;;;8384485;28;20259;-64
2023/10/16 11:08:07;;;;;;;8.38;6.07;;;;;11.00;96795.00;;;;8381818;28;20205;-64
2023/10/16 11:12:11;;;;;;;9.05;6.55;;;;;10.90;96783.00;;;;8382631;28;20382;-64
2023/10/16 11:16:15;;;;;;;10.93;5.78;;;;;10.80;96775.00;;;;8389652;28;20206;-66
2023/10/16 11:20:30;;;;;;;7.03;6.17;;;;;10.40;96773.00;;;;8387572;28;20210;-64
2023/10/16 11:24:36;;;;;;;7.30;6.13;;;;;10.20;96761.00;;;;8386926;28;20232;-64
2023/10/16 11:28:48;;;;;;;8.35;6.07;;;;;10.30;96762.00;;;;8376512;28;20192;-64
2023/10/16 11:32:54;;;;;;;11.85;6.30;;;;;10.20;96765.00;;;;8382230;28;20216;-64
2023/10/16 11:36:57;;;;;;;8.35;6.18;;;;;10.30;96752.00;;;;8378719;28;20217;-64
2023/10/16 11:41:06;;;;;;;7.32;5.90;;;;;10.30;96748.00;;;;8380661;28;20201;-65
2023/10/16 11:45:18;;;;;;;9.70;6.68;;;;;10.30;96748.00;;;;8382764;28;20259;-65
2023/10/16 11:49:31;;;;;;;9.57;5.50;;;;;10.20;96752.00;;;;8388467;28;20195;-65
2023/10/16 11:53:34;;;;;;;10.82;6.80;;;;;10.20;96749.00;;;;8389391;28;20198;-64
2023/10/16 11:57:41;;;;;;;8.95;5.72;;;;;9.90;96733.00;;;;8386136;28;20211;-65
2023/10/16 12:01:45;;;;;;;8.00;5.80;;;;;9.90;96720.00;;;;8378430;28;20224;-65
2023/10/16 12:06:08;;;;;;;7.30;4.80;;;;;9.90;96712.00;;;;8385707;28;20255;-64
2023/10/16 12:10:15;;;;;;;6.30;5.38;;;;;9.90;96712.00;;;;8385151;28;20873;-65
2023/10/16 12:14:19;;;;;;;6.43;4.43;;;;;10.00;96698.00;;;;8372935;28;20222;-64
2023/10/16 12:18:26;;;;;;;6.80;4.53;;;;;10.00;96696.00;;;;8378854;28;20231;-64
2023/10/16 12:22:29;;;;;;;6.28;3.85;;;;;10.00;96688.00;;;;8380882;28;20232;-64
2023/10/16 12:26:32;;;;;;;4.68;3.95;;;;;10.10;96681.00;;;;8379858;28;20255;-65
2023/10/16 12:30:36;;;;;;;3.90;3.47;;;;;10.20;96678.00;;;;8375296;28;20287;-64
2023/10/16 12:34:41;;;;;;;4.38;3.67;;;;;10.20;96672.00;;;;8374781;28;20271;-64
2023/10/16 12:38:45;;;;;;;4.80;2.95;;;;;10.20;96662.00;;;;8378466;28;21392;-64
2023/10/16 12:42:48;;;;;;;2.50;2.30;;;;;10.30;96667.00;;;;8380051;28;20200;-64
2023/10/16 12:46:53;;;;;;;2.92;2.63;;;;;9.90;96663.00;;;;8377627;28;20216;-65
2023/10/16 12:51:00;;;;;;;3.17;2.90;;;;;9.70;96653.00;;;;8375968;28;20322;-64
2023/10/16 12:55:16;;;;;;;3.40;3.10;;;;;9.60;96652.00;;;;8379038;28;20233;-64
2023/10/16 12:59:21;;;;;;;3.88;3.10;;;;;9.70;96653.00;;;;8381147;28;20720;-65
2023/10/16 13:03:24;;;;;;;4.05;3.05;;;;;9.80;96653.00;;;;8378555;28;20232;-64
2023/10/16 13:07:29;;;;;;;6.95;2.90;;;;;9.70;96649.00;;;;8378080;28;20196;-64
2023/10/16 13:11:47;;;;;;;7.40;2.90;;;;;9.60;96643.00;;;;8365678;28;20199;-64
2023/10/16 13:15:54;;;;;;;2.42;2.22;;;;;9.50;96641.00;;;;8376125;28;20196;-64
2023/10/16 13:19:57;;;;;;;4.32;2.22;;;;;9.60;96639.00;;;;8384685;28;20208;-64
2023/10/16 13:24:09;;;;;;;3.00;2.15;;;;;9.50;96629.00;;;;8375957;28;20314;-64
2023/10/16 13:28:12;;;;;;;3.38;2.40;;;;;9.50;96625.00;;;;8385902;28;20201;-65
2023/10/16 13:32:15;;;;;;;2.22;2.00;;;;;9.60;96624.00;;;;8380852;28;20201;-64
2023/10/16 13:36:18;;;;;;;1.90;1.80;;;;;9.70;96639.00;;;;8385596;28;20698;-64
2023/10/16 13:40:24;;;;;;;2.15;1.95;;;;;9.70;96626.00;;;;8385466;28;20292;-64
2023/10/16 13:44:29;;;;;;;1.50;1.50;;;;;9.70;96629.00;;;;8383443;28;20229;-64
2023/10/16 13:48:32;;;;;;;1.75;1.65;;;;;9.70;96634.00;;;;8382999;28;20235;-64
2023/10/16 13:52:36;;;;;;;4.20;1.63;;;;;9.70;96631.00;;;;8378550;28;20238;-65
2023/10/16 13:56:41;;;;;;;1.80;1.70;;;;;9.80;96628.00;;;;8382079;28;20226;-64
2023/10/16 14:00:47;;;;;;;1.80;1.50;;;;;9.90;96616.00;;;;8378310;28;20193;-64
2023/10/16 14:04:52;;;;;;;1.70;1.60;;;;;9.90;96611.00;;;;8379687;28;20226;-64
2023/10/16 14:09:00;;;;;;;2.28;1.52;;;;;10.00;96604.00;;;;8384449;28;20208;-64
2023/10/16 14:13:11;;;;;;;2.72;1.17;;;;;10.10;96605.00;;;;8382648;28;20195;-63
2023/10/16 14:17:18;;;;;;;1.35;1.30;;;;;10.20;96616.00;;;;8379374;28;20196;-64
2023/10/16 14:21:23;;;;;;;2.72;1.48;;;;;10.20;96608.00;;;;8378349;28;20230;-64
2023/10/16 14:25:32;;;;;;;1.50;1.50;;;;;10.20;96617.00;;;;8379708;28;20217;-63
2023/10/16 14:29:39;;;;;;;2.05;1.60;;;;;10.20;96621.00;;;;8381298;28;20668;-64
2023/10/16 14:33:42;;;;;;;3.30;1.50;;;;;10.20;96613.00;;;;8377123;28;20578;-64
2023/10/16 14:37:45;;;;;;;1.80;1.70;;;;;10.10;96620.00;;;;8382708;28;20876;-64
2023/10/16 14:41:48;;;;;;;3.13;2.05;;;;;10.10;96606.00;;;;8382301;28;20202;-64
2023/10/16 14:45:57;;;;;;;2.90;2.38;;;;;10.10;96598.00;;;;8384207;28;20316;-64
2023/10/16 14:50:03;;;;;;;1.83;1.73;;;;;10.10;96600.00;;;;8378307;28;21801;-63
2023/10/16 14:54:07;;;;;;;2.15;1.92;;;;;10.10;96594.00;;;;8381896;28;20236;-64
2023/10/16 14:58:10;;;;;;;3.08;1.90;;;;;10.00;96594.00;;;;8385331;28;20199;-64
2023/10/16 15:02:34;;;;;;;2.30;2.08;;;;;10.00;96602.00;;;;8367738;28;20256;-64
2023/10/16 15:06:38;;;;;;;3.25;2.30;;;;;9.90;96591.00;;;;8376634;28;20293;-64
2023/10/16 15:10:43;;;;;;;2.90;1.80;;;;;9.80;96590.00;;;;8361356;28;20222;-64
2023/10/16 15:14:52;;;;;;;1.48;1.40;;;;;9.70;96588.00;;;;8365489;28;20199;-64
2023/10/16 15:18:57;;;;;;;1.30;1.20;;;;;9.60;96586.00;;;;8368442;28;20296;-64
2023/10/16 15:23:03;;;;;;;1.38;1.27;;;;;9.50;96582.00;;;;8374969;28;20552;-64
2023/10/16 15:27:06;;;;;;;1.30;1.30;;;;;9.30;96572.00;;;;8364850;28;20694;-64
2023/10/16 15:31:09;;;;;;;2.80;1.80;;;;;9.20;96571.00;;;;8358176;28;20613;-64
2023/10/16 15:35:20;;;;;;;2.15;1.35;;;;;9.20;96574.00;;;;8355236;28;20201;-66
2023/10/16 15:39:23;;;;;;;1.83;1.20;;;;;9.10;96569.00;;;;8361317;28;20270;-65
2023/10/16 15:43:26;;;;;;;2.95;1.40;;;;;9.00;96570.00;;;;8384510;28;20639;-65
2023/10/16 15:47:29;;;;;;;1.30;1.30;;;;;8.90;96573.00;;;;8371112;28;20339;-65
2023/10/16 15:51:34;;;;;;;1.90;1.40;;;;;8.80;96578.00;;;;8371380;28;20196;-65
2023/10/16 15:55:38;;;;;;;1.50;1.23;;;;;8.70;96575.00;;;;8372677;28;20722;-65
2023/10/16 15:59:42;;;;;;;1.97;1.30;;;;;8.60;96574.00;;;;8382022;28;20258;-65
2023/10/16 16:03:45;;;;;;;1.80;1.20;;;;;8.50;96581.00;;;;8372973;28;20311;-65
2023/10/16 16:07:50;;;;;;;1.40;1.30;;;;;8.30;96574.00;;;;8364721;28;20231;-65
2023/10/16 16:11:53;;;;;;;8.48;2.70;;;;;8.10;96585.00;;;;8363185;28;20204;-64
2023/10/16 16:16:00;;;;;;;1.60;1.50;;;;;7.90;96592.00;;;;8360453;28;20207;-64
2023/10/16 16:20:04;;;;;;;1.90;1.50;;;;;7.60;96580.00;;;;8367861;28;20287;-65
2023/10/16 16:24:12;;;;;;;2.50;1.93;;;;;7.30;96585.00;;;;8366430;28;20945;-64
2023/10/16 16:28:15;;;;;;;4.43;2.30;;;;;7.00;96597.00;;;;8385161;28;20234;-64
2023/10/16 16:32:20;;;;;;;2.00;1.90;;;;;6.70;96593.00;;;;8360530;28;20196;-64
2023/10/16 16:36:23;;;;;;;3.23;2.30;;;;;6.50;96596.00;;;;8375097;28;20204;-64
2023/10/16 16:40:29;;;;;;;5.43;3.43;;;;;6.30;96601.00;;;;8376852;28;20205;-64
2023/10/16 16:44:32;;;;;;;1.83;1.73;;;;;6.20;96597.00;;;;8388808;28;20203;-64
2023/10/16 16:48:35;;;;;;;2.73;1.50;;;;;6.10;96601.00;;;;8381896;28;20223;-65
2023/10/16 16:52:39;;;;;;;3.87;2.30;;;;;6.10;96594.00;;;;8372791;28;20223;-64
2023/10/16 16:56:43;;;;;;;2.07;1.93;;;;;5.90;96604.00;;;;8360402;28;20231;-64
2023/10/16 17:00:47;;;;;;;2.10;1.70;;;;;5.70;96600.00;;;;8373556;28;20203;-64
2023/10/16 17:04:50;;;;;;;3.17;2.00;;;;;5.60;96605.00;;;;8429084;28;20593;-64
2023/10/16 17:08:55;;;;;;;6.50;2.87;;;;;5.50;96607.00;;;;8428354;28;20603;-64
2023/10/16 17:12:59;;;;;;;14.43;5.97;;;;;5.30;96611.00;;;;8429894;28;20671;-64
2023/10/16 17:17:02;;;;;;;9.03;3.23;;;;;5.30;96608.00;;;;8429087;28;20227;-64
2023/10/16 17:21:06;;;;;;;10.07;3.20;;;;;5.20;96613.00;;;;8428931;28;20651;-64
2023/10/16 17:25:11;;;;;;;7.17;4.47;;;;;5.10;96613.00;;;;8428641;28;20195;-64
2023/10/16 17:29:17;;;;;;;9.53;4.43;;;;;5.10;96617.00;;;;8428710;28;20274;-64
2023/10/16 17:33:20;;;;;;;5.53;2.90;;;;;5.10;96618.00;;;;8427931;28;20195;-64
2023/10/16 17:37:24;;;;;;;4.47;3.07;;;;;5.10;96613.00;;;;8426563;28;20291;-64
2023/10/16 17:41:27;;;;;;;7.60;4.27;;;;;5.00;96629.00;;;;8425579;28;20202;-65
2023/10/16 17:45:32;;;;;;;6.53;3.40;;;;;5.00;96616.00;;;;8427652;28;20311;-68
2023/10/16 17:49:35;;;;;;;10.53;4.13;;;;;4.90;96614.00;;;;8428423;28;20191;-69
2023/10/16 17:53:39;;;;;;;13.03;5.07;;;;;4.80;96607.00;;;;8427038;28;20290;-70
2023/10/16 17:57:42;;;;;;;7.13;3.87;;;;;4.80;96601.00;;;;8427977;28;20196;-68
2023/10/16 18:01:46;;;;;;;14.83;4.90;;;;;4.70;96592.00;;;;8418055;28;20258;-69
2023/10/16 18:05:49;;;;;;;16.70;5.47;;;;;4.70;96598.00;;;;8366728;28;20761;-64
2023/10/16 18:09:53;;;;;;;5.37;3.67;;;;;4.70;96601.00;;;;8375864;28;20192;-64
2023/10/16 18:13:57;;;;;;;8.57;3.50;;;;;4.70;96594.00;;;;8377206;28;20200;-65
2023/10/16 18:18:02;;;;;;;7.50;3.63;;;;;4.80;96594.00;;;;8370603;28;20192;-63
2023/10/16 18:22:05;;;;;;;10.20;4.27;;;;;4.90;96598.00;;;;8379158;28;20277;-66
2023/10/16 18:26:08;;;;;;;8.60;5.00;;;;;4.90;96599.00;;;;8380834;28;20326;-64
2023/10/16 18:30:14;;;;;;;8.60;3.97;;;;;5.00;96598.00;;;;8374532;28;20951;-64
2023/10/16 18:34:19;;;;;;;3.10;2.80;;;;;5.00;96606.00;;;;8365673;28;20250;-64
2023/10/16 18:38:23;;;;;;;6.57;3.30;;;;;5.10;96599.00;;;;8377389;28;20204;-65
2023/10/16 18:42:26;;;;;;;3.57;3.07;;;;;5.10;96593.00;;;;8374119;28;20734;-65
2023/10/16 18:46:29;;;;;;;4.67;3.47;;;;;5.00;96608.00;;;;8375318;28;20219;-64
2023/10/16 18:50:34;;;;;;;4.53;2.83;;;;;5.00;96601.00;;;;8380507;28;20977;-64
2023/10/16 18:54:37;;;;;;;6.73;3.30;;;;;5.00;96593.00;;;;8372884;28;20295;-63
2023/10/16 18:58:40;;;;;;;6.23;3.27;;;;;4.90;96595.00;;;;8376752;28;20210;-65
2023/10/16 19:02:44;;;;;;;7.80;3.97;;;;;4.90;96600.00;;;;8376418;28;20259;-64
2023/10/16 19:06:49;;;;;;;4.03;2.90;;;;;4.90;96600.00;;;;8375364;28;20220;-64
2023/10/16 19:10:54;;;;;;;4.63;2.90;;;;;4.90;96590.00;;;;8368304;28;20204;-66
2023/10/16 19:14:57;;;;;;;4.03;2.33;;;;;4.90;96585.00;;;;8383157;28;20980;-65
2023/10/16 19:19:01;;;;;;;3.10;2.60;;;;;4.90;96593.00;;;;8383300;28;20818;-66
2023/10/16 19:23:06;;;;;;;3.13;2.83;;;;;4.80;96591.00;;;;8379629;28;20196;-64
2023/10/16 19:27:09;;;;;;;6.80;3.77;;;;;4.90;96582.00;;;;8380979;28;20238;-65
2023/10/16 19:31:13;;;;;;;12.03;5.00;;;;;4.90;96587.00;;;;8374808;28;20292;-65
2023/10/16 19:35:17;;;;;;;5.60;2.93;;;;;5.00;96582.00;;;;8372058;28;20196;-66
2023/10/16 19:39:22;;;;;;;4.33;3.10;;;;;5.10;96587.00;;;;8375826;28;20208;-64
2023/10/16 19:43:25;;;;;;;4.40;2.87;;;;;5.10;96595.00;;;;8372936;28;20591;-66
2023/10/16 19:47:29;;;;;;;5.93;2.83;;;;;5.10;96594.00;;;;8371497;28;20231;-64
2023/10/16 19:51:32;;;;;;;6.73;3.13;;;;;5.10;96586.00;;;;8375085;28;20227;-65
2023/10/16 19:55:37;;;;;;;9.07;3.70;;;;;5.10;96594.00;;;;8373093;28;20737;-65
2023/10/16 19:59:40;;;;;;;6.03;3.50;;;;;5.10;96591.00;;;;8365131;28;20196;-65
2023/10/16 20:03:45;;;;;;;4.20;2.50;;;;;5.20;96587.00;;;;8374488;28;20307;-66
2023/10/16 20:07:49;;;;;;;5.77;3.30;;;;;5.20;96586.00;;;;8379050;28;20231;-67
2023/10/16 20:11:53;;;;;;;7.03;3.37;;;;;5.30;96598.00;;;;8372515;28;20192;-67
2023/10/16 20:16:11;;;;;;;5.43;2.90;;;;;5.30;96598.00;;;;8364432;28;20200;-68
2023/10/16 20:20:22;;;;;;;4.10;2.93;;;;;5.40;96608.00;;;;8379906;28;20227;-67
2023/10/16 20:24:29;;;;;;;6.23;2.97;;;;;5.30;96611.00;;;;8375329;28;20199;-67
2023/10/16 20:28:34;;;;;;;6.07;3.07;;;;;5.30;96604.00;;;;8367562;28;20331;-67
2023/10/16 20:32:37;;;;;;;3.53;3.10;;;;;5.30;96610.00;;;;8368555;28;20195;-67
2023/10/16 20:36:42;;;;;;;5.97;3.20;;;;;5.30;96612.00;;;;8375225;28;20211;-67
2023/10/16 20:40:45;;;;;;;5.50;3.30;;;;;5.30;96611.00;;;;8373277;28;20777;-67
2023/10/16 20:44:50;;;;;;;3.83;3.07;;;;;5.30;96596.00;;;;8366008;28;20207;-66
2023/10/16 20:48:55;;;;;;;3.40;3.10;;;;;5.30;96600.00;;;;8366138;28;20227;-65
2023/10/16 20:52:59;;;;;;;5.17;3.30;;;;;5.30;96603.00;;;;8369043;28;20620;-66
2023/10/16 20:57:02;;;;;;;4.10;3.53;;;;;5.30;96600.00;;;;8369300;28;20920;-68
2023/10/16 21:01:13;;;;;;;6.80;3.60;;;;;5.20;96603.00;;;;8357276;28;20227;-67
2023/10/16 21:05:22;;;;;;;3.20;2.90;;;;;5.10;96600.00;;;;8373813;28;20187;-67
2023/10/16 21:09:26;;;;;;;9.07;3.70;;;;;5.00;96609.00;;;;8380019;28;20568;-66
2023/10/16 21:13:30;;;;;;;6.33;3.50;;;;;5.00;96608.00;;;;8386332;28;20198;-66
2023/10/16 21:17:35;;;;;;;6.57;3.67;;;;;5.00;96602.00;;;;8393662;28;20279;-66
2023/10/16 21:21:38;;;;;;;6.43;3.70;;;;;5.00;96601.00;;;;8382101;28;20861;-67
2023/10/16 21:25:41;;;;;;;10.67;4.23;;;;;5.00;96613.00;;;;8372743;28;20291;-67
2023/10/16 21:29:44;;;;;;;7.67;4.50;;;;;5.00;96604.00;;;;8379049;28;20219;-68
2023/10/16 21:33:49;;;;;;;8.57;3.57;;;;;4.90;96597.00;;;;8371010;28;20210;-67
2023/10/16 21:37:52;;;;;;;4.37;3.10;;;;;4.90;96599.00;;;;8378744;28;20203;-67
2023/10/16 21:41:56;;;;;;;4.60;3.23;;;;;4.80;96600.00;;;;8372778;28;20640;-68
2023/10/16 21:45:59;;;;;;;4.90;3.00;;;;;4.80;96597.00;;;;8386041;28;20232;-65
2023/10/16 21:50:06;;;;;;;6.70;3.37;;;;;4.70;96583.00;;;;8388980;28;20251;-66
2023/10/16 21:54:09;;;;;;;6.87;3.27;;;;;4.70;96591.00;;;;8381630;28;20196;-67
2023/10/16 21:58:12;;;;;;;4.33;3.47;;;;;4.60;96591.00;;;;8378897;28;20203;-67
2023/10/16 22:02:16;;;;;;;4.63;2.93;;;;;4.50;96590.00;;;;8376459;28;20317;-66
2023/10/16 22:06:21;;;;;;;4.83;3.97;;;;;4.50;96588.00;;;;8392751;28;20202;-67
2023/10/16 22:10:24;;;;;;;7.50;4.03;;;;;4.50;96583.00;;;;8382514;28;20311;-67
2023/10/16 22:14:27;;;;;;;5.73;4.10;;;;;4.40;96582.00;;;;8387231;28;20199;-67